EGBB/BHX METAR and TAF weather

Enter ICAO airport designator
Station Type Date Time Source
EGBB METAR 2019/08/24 19:50 UTC NOAA

EGBB 241950Z 15004KT CAVOK 20/13 Q1017


Station Type Date Time Source
EGBB Decoded METAR 2019/08/24 19:50 UTC NOAA

Station name not available
Aug 24, 2019 - 03:50 PM EDT / 2019.08.24 1950 UTC
Wind: from the SSE (150 degrees) at 5 MPH (4 KT):0
Visibility: greater than 7 mile(s):0
Temperature: 68 F (20 C)
Dew Point: 55 F (13 C)
Relative Humidity: 64%
Pressure (altimeter): 30.03 in. Hg (1017 hPa)
ob: EGBB 241950Z 15004KT CAVOK 20/13 Q1017
cycle: 20

Station Type Date Time Source
EGBB TAF 2019/08/24 18:09 UTC NOAA

TAF EGBB 241656Z 2418/2518 13008KT 9999 FEW040 PROB30
TEMPO 2504/2508 7000

Example: see airport list